sensor_id;sensor_type;location;lat;lon;timestamp;P1;durP1;ratioP1;P2;durP2;ratioP2
71490;SDS011;59307;50.060;9.150;2023-06-26T00:00:21;7.30;;;4.70;;
71490;SDS011;59307;50.060;9.150;2023-06-26T00:02:46;8.00;;;4.70;;
71490;SDS011;59307;50.060;9.150;2023-06-26T00:05:11;9.10;;;5.07;;
71490;SDS011;59307;50.060;9.150;2023-06-26T00:07:36;7.70;;;4.50;;
71490;SDS011;59307;50.060;9.150;2023-06-26T00:10:02;7.60;;;4.90;;
71490;SDS011;59307;50.060;9.150;2023-06-26T00:12:27;7.77;;;4.60;;
71490;SDS011;59307;50.060;9.150;2023-06-26T00:14:53;8.98;;;5.72;;
71490;SDS011;59307;50.060;9.150;2023-06-26T00:17:18;7.50;;;4.50;;
71490;SDS011;59307;50.060;9.150;2023-06-26T00:19:43;8.77;;;5.20;;
71490;SDS011;59307;50.060;9.150;2023-06-26T00:22:09;7.03;;;4.30;;
71490;SDS011;59307;50.060;9.150;2023-06-26T00:24:34;9.50;;;4.60;;
71490;SDS011;59307;50.060;9.150;2023-06-26T00:26:59;7.67;;;4.73;;
71490;SDS011;59307;50.060;9.150;2023-06-26T00:29:24;7.70;;;4.50;;
71490;SDS011;59307;50.060;9.150;2023-06-26T00:31:49;10.30;;;5.63;;
71490;SDS011;59307;50.060;9.150;2023-06-26T00:34:15;7.40;;;4.77;;
71490;SDS011;59307;50.060;9.150;2023-06-26T00:36:40;9.67;;;5.20;;
71490;SDS011;59307;50.060;9.150;2023-06-26T00:39:08;8.27;;;5.15;;
71490;SDS011;59307;50.060;9.150;2023-06-26T00:41:33;7.30;;;4.73;;
71490;SDS011;59307;50.060;9.150;2023-06-26T00:43:58;7.77;;;5.10;;
71490;SDS011;59307;50.060;9.150;2023-06-26T00:46:24;9.07;;;4.90;;
71490;SDS011;59307;50.060;9.150;2023-06-26T00:48:49;9.30;;;5.05;;
71490;SDS011;59307;50.060;9.150;2023-06-26T00:51:14;8.40;;;4.87;;
71490;SDS011;59307;50.060;9.150;2023-06-26T00:53:40;8.00;;;4.70;;
71490;SDS011;59307;50.060;9.150;2023-06-26T00:56:05;8.50;;;4.80;;
71490;SDS011;59307;50.060;9.150;2023-06-26T00:58:30;8.20;;;5.10;;
71490;SDS011;59307;50.060;9.150;2023-06-26T01:00:56;9.13;;;5.43;;
71490;SDS011;59307;50.060;9.150;2023-06-26T01:03:24;8.37;;;4.73;;
71490;SDS011;59307;50.060;9.150;2023-06-26T01:05:52;7.83;;;5.00;;
71490;SDS011;59307;50.060;9.150;2023-06-26T01:08:20;7.45;;;4.57;;
71490;SDS011;59307;50.060;9.150;2023-06-26T01:10:45;7.30;;;4.50;;
71490;SDS011;59307;50.060;9.150;2023-06-26T01:13:12;7.18;;;4.65;;
71490;SDS011;59307;50.060;9.150;2023-06-26T01:15:37;8.00;;;4.68;;
71490;SDS011;59307;50.060;9.150;2023-06-26T01:18:02;8.45;;;4.70;;
71490;SDS011;59307;50.060;9.150;2023-06-26T01:20:32;7.83;;;4.60;;
71490;SDS011;59307;50.060;9.150;2023-06-26T01:28:03;8.20;;;4.78;;
71490;SDS011;59307;50.060;9.150;2023-06-26T01:30:30;8.48;;;5.45;;
71490;SDS011;59307;50.060;9.150;2023-06-26T01:32:55;7.03;;;4.63;;
71490;SDS011;59307;50.060;9.150;2023-06-26T01:35:20;8.90;;;5.30;;
71490;SDS011;59307;50.060;9.150;2023-06-26T01:37:46;8.67;;;4.80;;
71490;SDS011;59307;50.060;9.150;2023-06-26T01:40:11;7.87;;;5.13;;
71490;SDS011;59307;50.060;9.150;2023-06-26T01:42:36;9.07;;;5.27;;
71490;SDS011;59307;50.060;9.150;2023-06-26T01:45:02;8.23;;;5.10;;
71490;SDS011;59307;50.060;9.150;2023-06-26T01:47:29;9.60;;;5.00;;
71490;SDS011;59307;50.060;9.150;2023-06-26T01:49:56;7.45;;;4.75;;
71490;SDS011;59307;50.060;9.150;2023-06-26T01:52:25;7.80;;;4.43;;
71490;SDS011;59307;50.060;9.150;2023-06-26T01:54:57;9.48;;;4.72;;
71490;SDS011;59307;50.060;9.150;2023-06-26T01:57:23;8.45;;;5.15;;
71490;SDS011;59307;50.060;9.150;2023-06-26T01:59:51;9.38;;;4.88;;
71490;SDS011;59307;50.060;9.150;2023-06-26T02:02:17;8.83;;;4.93;;
71490;SDS011;59307;50.060;9.150;2023-06-26T02:04:42;8.47;;;4.93;;
71490;SDS011;59307;50.060;9.150;2023-06-26T02:07:07;7.63;;;4.97;;
71490;SDS011;59307;50.060;9.150;2023-06-26T02:09:34;7.88;;;4.90;;
71490;SDS011;59307;50.060;9.150;2023-06-26T02:11:59;8.20;;;4.77;;
71490;SDS011;59307;50.060;9.150;2023-06-26T02:14:24;7.57;;;4.77;;
71490;SDS011;59307;50.060;9.150;2023-06-26T02:16:50;7.23;;;4.63;;
71490;SDS011;59307;50.060;9.150;2023-06-26T02:19:15;7.83;;;4.40;;
71490;SDS011;59307;50.060;9.150;2023-06-26T02:21:46;7.53;;;4.65;;
71490;SDS011;59307;50.060;9.150;2023-06-26T02:24:11;9.17;;;5.07;;
71490;SDS011;59307;50.060;9.150;2023-06-26T02:26:36;9.20;;;5.20;;
71490;SDS011;59307;50.060;9.150;2023-06-26T02:29:02;8.37;;;4.90;;
71490;SDS011;59307;50.060;9.150;2023-06-26T02:31:27;8.60;;;5.20;;
71490;SDS011;59307;50.060;9.150;2023-06-26T02:33:52;9.47;;;4.80;;
71490;SDS011;59307;50.060;9.150;2023-06-26T02:36:17;8.40;;;4.93;;
71490;SDS011;59307;50.060;9.150;2023-06-26T02:38:42;8.73;;;4.77;;
71490;SDS011;59307;50.060;9.150;2023-06-26T02:41:08;7.77;;;4.80;;
71490;SDS011;59307;50.060;9.150;2023-06-26T02:43:33;7.33;;;4.60;;
71490;SDS011;59307;50.060;9.150;2023-06-26T02:45:58;8.70;;;5.27;;
71490;SDS011;59307;50.060;9.150;2023-06-26T02:48:23;8.73;;;5.37;;
71490;SDS011;59307;50.060;9.150;2023-06-26T02:50:48;8.40;;;5.00;;
71490;SDS011;59307;50.060;9.150;2023-06-26T02:53:13;9.33;;;5.43;;
71490;SDS011;59307;50.060;9.150;2023-06-26T02:55:39;7.93;;;5.10;;
71490;SDS011;59307;50.060;9.150;2023-06-26T02:58:04;7.47;;;5.03;;
71490;SDS011;59307;50.060;9.150;2023-06-26T03:00:30;8.65;;;5.55;;
71490;SDS011;59307;50.060;9.150;2023-06-26T03:02:55;7.87;;;4.90;;
71490;SDS011;59307;50.060;9.150;2023-06-26T03:05:20;8.27;;;4.80;;
71490;SDS011;59307;50.060;9.150;2023-06-26T03:07:46;10.47;;;5.13;;
71490;SDS011;59307;50.060;9.150;2023-06-26T03:10:11;11.70;;;4.90;;
71490;SDS011;59307;50.060;9.150;2023-06-26T03:12:36;9.17;;;4.73;;
71490;SDS011;59307;50.060;9.150;2023-06-26T03:15:01;10.13;;;5.30;;
71490;SDS011;59307;50.060;9.150;2023-06-26T03:17:26;8.60;;;5.00;;
71490;SDS011;59307;50.060;9.150;2023-06-26T03:19:51;8.27;;;4.87;;
71490;SDS011;59307;50.060;9.150;2023-06-26T03:22:17;9.73;;;5.57;;
71490;SDS011;59307;50.060;9.150;2023-06-26T03:24:43;8.00;;;5.10;;
71490;SDS011;59307;50.060;9.150;2023-06-26T03:27:08;8.38;;;5.25;;
71490;SDS011;59307;50.060;9.150;2023-06-26T03:29:34;8.90;;;4.80;;
71490;SDS011;59307;50.060;9.150;2023-06-26T03:31:59;10.13;;;4.80;;
71490;SDS011;59307;50.060;9.150;2023-06-26T03:34:25;8.80;;;5.00;;
71490;SDS011;59307;50.060;9.150;2023-06-26T03:36:50;7.97;;;5.10;;
71490;SDS011;59307;50.060;9.150;2023-06-26T03:39:15;8.77;;;5.23;;
71490;SDS011;59307;50.060;9.150;2023-06-26T03:41:40;8.37;;;5.07;;
71490;SDS011;59307;50.060;9.150;2023-06-26T03:44:05;8.57;;;4.60;;
71490;SDS011;59307;50.060;9.150;2023-06-26T03:46:30;7.87;;;5.10;;
71490;SDS011;59307;50.060;9.150;2023-06-26T03:48:56;9.20;;;4.70;;
71490;SDS011;59307;50.060;9.150;2023-06-26T03:51:21;7.73;;;5.47;;
71490;SDS011;59307;50.060;9.150;2023-06-26T03:53:46;7.83;;;4.93;;
71490;SDS011;59307;50.060;9.150;2023-06-26T03:56:11;8.23;;;5.07;;
71490;SDS011;59307;50.060;9.150;2023-06-26T03:58:37;9.20;;;5.33;;
71490;SDS011;59307;50.060;9.150;2023-06-26T04:01:02;8.43;;;5.50;;
71490;SDS011;59307;50.060;9.150;2023-06-26T04:03:28;9.13;;;5.50;;
71490;SDS011;59307;50.060;9.150;2023-06-26T04:05:54;8.75;;;5.35;;
71490;SDS011;59307;50.060;9.150;2023-06-26T04:08:19;9.87;;;5.20;;
71490;SDS011;59307;50.060;9.150;2023-06-26T04:10:45;7.85;;;4.85;;
71490;SDS011;59307;50.060;9.150;2023-06-26T04:13:12;9.82;;;5.00;;
71490;SDS011;59307;50.060;9.150;2023-06-26T04:15:39;7.17;;;4.73;;
71490;SDS011;59307;50.060;9.150;2023-06-26T04:18:04;8.27;;;5.27;;
71490;SDS011;59307;50.060;9.150;2023-06-26T04:20:29;8.63;;;5.07;;
71490;SDS011;59307;50.060;9.150;2023-06-26T04:22:54;10.53;;;5.33;;
71490;SDS011;59307;50.060;9.150;2023-06-26T04:25:19;8.03;;;4.67;;
71490;SDS011;59307;50.060;9.150;2023-06-26T04:27:44;8.80;;;4.87;;
71490;SDS011;59307;50.060;9.150;2023-06-26T04:30:10;7.40;;;4.87;;
71490;SDS011;59307;50.060;9.150;2023-06-26T04:32:35;8.27;;;5.23;;
71490;SDS011;59307;50.060;9.150;2023-06-26T04:35:00;8.83;;;5.23;;
71490;SDS011;59307;50.060;9.150;2023-06-26T04:37:26;8.67;;;4.83;;
71490;SDS011;59307;50.060;9.150;2023-06-26T04:39:51;10.37;;;6.60;;
71490;SDS011;59307;50.060;9.150;2023-06-26T04:42:16;12.13;;;7.20;;
71490;SDS011;59307;50.060;9.150;2023-06-26T04:44:41;10.73;;;6.47;;
71490;SDS011;59307;50.060;9.150;2023-06-26T04:47:07;10.05;;;6.25;;
71490;SDS011;59307;50.060;9.150;2023-06-26T04:49:33;8.97;;;5.87;;
71490;SDS011;59307;50.060;9.150;2023-06-26T04:51:58;10.43;;;5.27;;
71490;SDS011;59307;50.060;9.150;2023-06-26T04:54:25;9.45;;;5.35;;
71490;SDS011;59307;50.060;9.150;2023-06-26T04:56:50;8.17;;;5.30;;
71490;SDS011;59307;50.060;9.150;2023-06-26T04:59:15;11.70;;;5.60;;
71490;SDS011;59307;50.060;9.150;2023-06-26T05:01:41;12.37;;;7.07;;
71490;SDS011;59307;50.060;9.150;2023-06-26T05:04:06;10.40;;;5.90;;
71490;SDS011;59307;50.060;9.150;2023-06-26T05:06:31;10.23;;;6.22;;
71490;SDS011;59307;50.060;9.150;2023-06-26T05:08:56;9.10;;;5.85;;
71490;SDS011;59307;50.060;9.150;2023-06-26T05:11:22;12.00;;;6.27;;
71490;SDS011;59307;50.060;9.150;2023-06-26T05:13:47;10.07;;;5.73;;
71490;SDS011;59307;50.060;9.150;2023-06-26T05:16:13;7.83;;;5.30;;
71490;SDS011;59307;50.060;9.150;2023-06-26T05:18:38;7.67;;;4.93;;
71490;SDS011;59307;50.060;9.150;2023-06-26T05:21:03;9.13;;;5.60;;
71490;SDS011;59307;50.060;9.150;2023-06-26T05:23:32;9.55;;;5.32;;
71490;SDS011;59307;50.060;9.150;2023-06-26T05:25:58;8.90;;;5.43;;
71490;SDS011;59307;50.060;9.150;2023-06-26T05:28:23;8.82;;;5.20;;
71490;SDS011;59307;50.060;9.150;2023-06-26T05:30:50;8.93;;;4.87;;
71490;SDS011;59307;50.060;9.150;2023-06-26T05:33:15;8.93;;;4.97;;
71490;SDS011;59307;50.060;9.150;2023-06-26T05:35:42;10.68;;;5.45;;
71490;SDS011;59307;50.060;9.150;2023-06-26T05:38:09;11.20;;;5.60;;
71490;SDS011;59307;50.060;9.150;2023-06-26T05:40:35;12.10;;;6.07;;
71490;SDS011;59307;50.060;9.150;2023-06-26T05:43:00;9.00;;;5.80;;
71490;SDS011;59307;50.060;9.150;2023-06-26T05:45:25;11.07;;;5.70;;
71490;SDS011;59307;50.060;9.150;2023-06-26T05:47:51;9.13;;;5.17;;
71490;SDS011;59307;50.060;9.150;2023-06-26T05:50:16;12.87;;;5.93;;
71490;SDS011;59307;50.060;9.150;2023-06-26T05:52:42;9.98;;;5.82;;
71490;SDS011;59307;50.060;9.150;2023-06-26T05:55:09;12.15;;;5.95;;
71490;SDS011;59307;50.060;9.150;2023-06-26T05:57:34;11.00;;;5.50;;
71490;SDS011;59307;50.060;9.150;2023-06-26T06:00:00;11.27;;;7.20;;
71490;SDS011;59307;50.060;9.150;2023-06-26T06:02:25;10.57;;;5.90;;
71490;SDS011;59307;50.060;9.150;2023-06-26T06:04:50;8.63;;;5.47;;
71490;SDS011;59307;50.060;9.150;2023-06-26T06:07:15;9.93;;;5.30;;
71490;SDS011;59307;50.060;9.150;2023-06-26T06:09:40;10.47;;;5.13;;
71490;SDS011;59307;50.060;9.150;2023-06-26T06:12:06;7.83;;;4.87;;
71490;SDS011;59307;50.060;9.150;2023-06-26T06:14:34;8.80;;;5.20;;
71490;SDS011;59307;50.060;9.150;2023-06-26T06:17:00;8.63;;;5.17;;
71490;SDS011;59307;50.060;9.150;2023-06-26T06:19:25;8.48;;;4.70;;
71490;SDS011;59307;50.060;9.150;2023-06-26T06:21:50;8.30;;;5.30;;
71490;SDS011;59307;50.060;9.150;2023-06-26T06:24:15;7.30;;;4.97;;
71490;SDS011;59307;50.060;9.150;2023-06-26T06:26:41;7.23;;;5.07;;
71490;SDS011;59307;50.060;9.150;2023-06-26T06:29:06;7.70;;;4.83;;
71490;SDS011;59307;50.060;9.150;2023-06-26T06:31:31;7.70;;;4.90;;
71490;SDS011;59307;50.060;9.150;2023-06-26T06:33:57;8.20;;;4.83;;
71490;SDS011;59307;50.060;9.150;2023-06-26T06:36:22;10.77;;;5.40;;
71490;SDS011;59307;50.060;9.150;2023-06-26T06:38:47;7.83;;;5.23;;
71490;SDS011;59307;50.060;9.150;2023-06-26T06:41:12;7.47;;;4.93;;
71490;SDS011;59307;50.060;9.150;2023-06-26T06:43:38;6.75;;;4.78;;
71490;SDS011;59307;50.060;9.150;2023-06-26T06:46:04;9.93;;;4.97;;
71490;SDS011;59307;50.060;9.150;2023-06-26T06:48:29;9.13;;;5.15;;
71490;SDS011;59307;50.060;9.150;2023-06-26T06:50:54;9.97;;;5.77;;
71490;SDS011;59307;50.060;9.150;2023-06-26T06:53:19;8.40;;;5.40;;
71490;SDS011;59307;50.060;9.150;2023-06-26T06:55:48;8.00;;;4.73;;
71490;SDS011;59307;50.060;9.150;2023-06-26T06:58:13;7.32;;;4.97;;
71490;SDS011;59307;50.060;9.150;2023-06-26T07:00:38;8.87;;;5.37;;
71490;SDS011;59307;50.060;9.150;2023-06-26T07:03:04;7.97;;;4.97;;
71490;SDS011;59307;50.060;9.150;2023-06-26T07:05:29;8.30;;;5.43;;
71490;SDS011;59307;50.060;9.150;2023-06-26T07:07:54;8.93;;;4.93;;
71490;SDS011;59307;50.060;9.150;2023-06-26T07:10:19;7.50;;;5.10;;
71490;SDS011;59307;50.060;9.150;2023-06-26T07:12:45;11.27;;;5.10;;
71490;SDS011;59307;50.060;9.150;2023-06-26T07:15:10;7.90;;;5.40;;
71490;SDS011;59307;50.060;9.150;2023-06-26T07:17:35;7.63;;;5.00;;
71490;SDS011;59307;50.060;9.150;2023-06-26T07:20:02;8.60;;;5.22;;
71490;SDS011;59307;50.060;9.150;2023-06-26T07:22:31;7.45;;;4.90;;
71490;SDS011;59307;50.060;9.150;2023-06-26T07:24:56;7.47;;;5.10;;
71490;SDS011;59307;50.060;9.150;2023-06-26T07:27:21;8.93;;;5.10;;
71490;SDS011;59307;50.060;9.150;2023-06-26T07:29:47;7.37;;;4.93;;
71490;SDS011;59307;50.060;9.150;2023-06-26T07:32:12;8.37;;;4.80;;
71490;SDS011;59307;50.060;9.150;2023-06-26T07:34:37;7.53;;;5.13;;
71490;SDS011;59307;50.060;9.150;2023-06-26T07:37:03;8.07;;;4.90;;
71490;SDS011;59307;50.060;9.150;2023-06-26T07:39:28;8.37;;;5.27;;
71490;SDS011;59307;50.060;9.150;2023-06-26T07:41:53;7.87;;;4.83;;
71490;SDS011;59307;50.060;9.150;2023-06-26T07:44:18;6.53;;;4.57;;
71490;SDS011;59307;50.060;9.150;2023-06-26T07:46:43;9.93;;;4.83;;
71490;SDS011;59307;50.060;9.150;2023-06-26T07:49:09;7.45;;;5.10;;
71490;SDS011;59307;50.060;9.150;2023-06-26T07:51:35;7.07;;;4.77;;
71490;SDS011;59307;50.060;9.150;2023-06-26T07:54:00;9.17;;;5.50;;
71490;SDS011;59307;50.060;9.150;2023-06-26T07:56:25;7.03;;;4.60;;
71490;SDS011;59307;50.060;9.150;2023-06-26T07:58:50;8.00;;;4.53;;
71490;SDS011;59307;50.060;9.150;2023-06-26T08:01:16;8.30;;;4.90;;
71490;SDS011;59307;50.060;9.150;2023-06-26T08:03:41;8.23;;;4.77;;
71490;SDS011;59307;50.060;9.150;2023-06-26T08:06:07;7.30;;;4.87;;
71490;SDS011;59307;50.060;9.150;2023-06-26T08:08:32;7.40;;;5.40;;
71490;SDS011;59307;50.060;9.150;2023-06-26T08:10:57;7.63;;;5.10;;
71490;SDS011;59307;50.060;9.150;2023-06-26T08:13:22;7.23;;;4.80;;
71490;SDS011;59307;50.060;9.150;2023-06-26T08:15:48;7.73;;;4.97;;
71490;SDS011;59307;50.060;9.150;2023-06-26T08:18:13;6.63;;;4.73;;
71490;SDS011;59307;50.060;9.150;2023-06-26T08:20:38;7.93;;;4.63;;
71490;SDS011;59307;50.060;9.150;2023-06-26T08:23:03;7.70;;;4.80;;
71490;SDS011;59307;50.060;9.150;2023-06-26T08:25:29;7.45;;;5.20;;
71490;SDS011;59307;50.060;9.150;2023-06-26T08:27:54;10.77;;;5.03;;
71490;SDS011;59307;50.060;9.150;2023-06-26T08:30:20;10.43;;;5.60;;
71490;SDS011;59307;50.060;9.150;2023-06-26T08:32:45;8.57;;;5.13;;
71490;SDS011;59307;50.060;9.150;2023-06-26T08:35:10;9.03;;;5.50;;
71490;SDS011;59307;50.060;9.150;2023-06-26T08:37:35;8.80;;;5.80;;
71490;SDS011;59307;50.060;9.150;2023-06-26T08:40:01;8.90;;;5.50;;
71490;SDS011;59307;50.060;9.150;2023-06-26T08:42:26;11.13;;;5.87;;
71490;SDS011;59307;50.060;9.150;2023-06-26T08:44:51;10.10;;;5.93;;
71490;SDS011;59307;50.060;9.150;2023-06-26T08:47:17;8.83;;;5.47;;
71490;SDS011;59307;50.060;9.150;2023-06-26T08:49:47;8.93;;;5.72;;
71490;SDS011;59307;50.060;9.150;2023-06-26T08:52:17;8.57;;;5.55;;
71490;SDS011;59307;50.060;9.150;2023-06-26T08:54:46;8.93;;;5.78;;
71490;SDS011;59307;50.060;9.150;2023-06-26T08:57:12;8.90;;;6.27;;
71490;SDS011;59307;50.060;9.150;2023-06-26T08:59:39;9.20;;;5.75;;
71490;SDS011;59307;50.060;9.150;2023-06-26T09:02:04;8.00;;;5.17;;
71490;SDS011;59307;50.060;9.150;2023-06-26T09:04:30;9.82;;;5.78;;
71490;SDS011;59307;50.060;9.150;2023-06-26T09:06:55;9.73;;;6.10;;
71490;SDS011;59307;50.060;9.150;2023-06-26T09:09:20;7.53;;;5.40;;
71490;SDS011;59307;50.060;9.150;2023-06-26T09:11:45;8.47;;;5.70;;
71490;SDS011;59307;50.060;9.150;2023-06-26T09:14:11;9.07;;;5.67;;
71490;SDS011;59307;50.060;9.150;2023-06-26T09:16:40;9.30;;;5.63;;
71490;SDS011;59307;50.060;9.150;2023-06-26T09:19:10;7.78;;;5.45;;
71490;SDS011;59307;50.060;9.150;2023-06-26T09:21:36;8.02;;;5.43;;
71490;SDS011;59307;50.060;9.150;2023-06-26T09:24:01;8.10;;;5.23;;
71490;SDS011;59307;50.060;9.150;2023-06-26T09:26:27;9.83;;;5.93;;
71490;SDS011;59307;50.060;9.150;2023-06-26T09:28:52;9.47;;;5.57;;
71490;SDS011;59307;50.060;9.150;2023-06-26T09:31:17;9.13;;;5.40;;
71490;SDS011;59307;50.060;9.150;2023-06-26T09:33:45;8.67;;;5.50;;
71490;SDS011;59307;50.060;9.150;2023-06-26T09:36:19;8.45;;;6.05;;
71490;SDS011;59307;50.060;9.150;2023-06-26T09:38:45;10.30;;;5.63;;
71490;SDS011;59307;50.060;9.150;2023-06-26T09:41:10;12.17;;;6.00;;
71490;SDS011;59307;50.060;9.150;2023-06-26T09:43:36;9.80;;;5.67;;
71490;SDS011;59307;50.060;9.150;2023-06-26T09:46:10;8.35;;;5.68;;
71490;SDS011;59307;50.060;9.150;2023-06-26T09:48:39;9.10;;;5.18;;
71490;SDS011;59307;50.060;9.150;2023-06-26T09:51:05;9.20;;;5.30;;
71490;SDS011;59307;50.060;9.150;2023-06-26T09:53:30;8.77;;;4.97;;
71490;SDS011;59307;50.060;9.150;2023-06-26T09:55:55;10.17;;;5.70;;
71490;SDS011;59307;50.060;9.150;2023-06-26T09:58:20;10.27;;;5.43;;
71490;SDS011;59307;50.060;9.150;2023-06-26T10:00:47;9.73;;;5.85;;
71490;SDS011;59307;50.060;9.150;2023-06-26T10:03:12;9.50;;;5.73;;
71490;SDS011;59307;50.060;9.150;2023-06-26T10:05:38;10.30;;;5.57;;
71490;SDS011;59307;50.060;9.150;2023-06-26T10:11:07;10.53;;;5.67;;
71490;SDS011;59307;50.060;9.150;2023-06-26T10:13:37;9.93;;;5.60;;
71490;SDS011;59307;50.060;9.150;2023-06-26T10:16:03;12.90;;;5.50;;
71490;SDS011;59307;50.060;9.150;2023-06-26T10:18:28;10.17;;;5.40;;
71490;SDS011;59307;50.060;9.150;2023-06-26T10:20:56;9.02;;;5.55;;
71490;SDS011;59307;50.060;9.150;2023-06-26T10:23:22;8.55;;;6.30;;
71490;SDS011;59307;50.060;9.150;2023-06-26T10:25:48;8.63;;;5.77;;
71490;SDS011;59307;50.060;9.150;2023-06-26T10:28:13;8.90;;;5.93;;
71490;SDS011;59307;50.060;9.150;2023-06-26T10:30:40;9.60;;;5.10;;
71490;SDS011;59307;50.060;9.150;2023-06-26T10:33:05;8.80;;;4.90;;
71490;SDS011;59307;50.060;9.150;2023-06-26T10:35:32;9.00;;;5.70;;
71490;SDS011;59307;50.060;9.150;2023-06-26T10:38:01;8.03;;;5.40;;
71490;SDS011;59307;50.060;9.150;2023-06-26T10:40:28;8.73;;;6.03;;
71490;SDS011;59307;50.060;9.150;2023-06-26T10:43:05;9.93;;;6.00;;
71490;SDS011;59307;50.060;9.150;2023-06-26T10:45:32;10.40;;;5.95;;
71490;SDS011;59307;50.060;9.150;2023-06-26T10:47:58;8.20;;;5.80;;
71490;SDS011;59307;50.060;9.150;2023-06-26T10:53:10;9.85;;;6.20;;
71490;SDS011;59307;50.060;9.150;2023-06-26T10:55:36;8.70;;;5.88;;
71490;SDS011;59307;50.060;9.150;2023-06-26T10:58:02;10.70;;;6.10;;
71490;SDS011;59307;50.060;9.150;2023-06-26T11:00:27;11.30;;;6.60;;
71490;SDS011;59307;50.060;9.150;2023-06-26T11:02:52;9.07;;;6.03;;
71490;SDS011;59307;50.060;9.150;2023-06-26T11:05:32;9.70;;;7.03;;
71490;SDS011;59307;50.060;9.150;2023-06-26T11:10:48;11.07;;;6.93;;
71490;SDS011;59307;50.060;9.150;2023-06-26T11:13:13;9.75;;;6.03;;
71490;SDS011;59307;50.060;9.150;2023-06-26T11:15:39;8.50;;;6.20;;
71490;SDS011;59307;50.060;9.150;2023-06-26T11:18:05;9.82;;;6.18;;
71490;SDS011;59307;50.060;9.150;2023-06-26T11:20:30;10.00;;;5.90;;
71490;SDS011;59307;50.060;9.150;2023-06-26T11:22:55;8.77;;;5.30;;
71490;SDS011;59307;50.060;9.150;2023-06-26T11:25:21;9.95;;;5.95;;
71490;SDS011;59307;50.060;9.150;2023-06-26T11:27:46;8.13;;;5.63;;
71490;SDS011;59307;50.060;9.150;2023-06-26T11:30:22;9.07;;;5.27;;
71490;SDS011;59307;50.060;9.150;2023-06-26T11:32:47;10.07;;;5.37;;
71490;SDS011;59307;50.060;9.150;2023-06-26T11:35:12;9.50;;;5.70;;
71490;SDS011;59307;50.060;9.150;2023-06-26T11:37:38;9.80;;;5.30;;
71490;SDS011;59307;50.060;9.150;2023-06-26T11:40:15;8.00;;;5.60;;
71490;SDS011;59307;50.060;9.150;2023-06-26T11:42:41;10.82;;;5.10;;
71490;SDS011;59307;50.060;9.150;2023-06-26T11:45:06;10.17;;;5.03;;
71490;SDS011;59307;50.060;9.150;2023-06-26T11:47:31;8.00;;;5.43;;
71490;SDS011;59307;50.060;9.150;2023-06-26T11:49:56;11.17;;;5.20;;
71490;SDS011;59307;50.060;9.150;2023-06-26T11:52:22;7.60;;;4.93;;
71490;SDS011;59307;50.060;9.150;2023-06-26T11:54:47;8.87;;;5.20;;
71490;SDS011;59307;50.060;9.150;2023-06-26T11:57:15;7.20;;;5.20;;
71490;SDS011;59307;50.060;9.150;2023-06-26T11:59:40;7.47;;;5.10;;
71490;SDS011;59307;50.060;9.150;2023-06-26T12:02:09;7.57;;;5.20;;
71490;SDS011;59307;50.060;9.150;2023-06-26T12:04:38;8.80;;;5.10;;
71490;SDS011;59307;50.060;9.150;2023-06-26T12:07:05;7.95;;;5.07;;
71490;SDS011;59307;50.060;9.150;2023-06-26T12:09:33;12.15;;;5.68;;
71490;SDS011;59307;50.060;9.150;2023-06-26T12:11:58;11.13;;;6.03;;
71490;SDS011;59307;50.060;9.150;2023-06-26T12:14:24;9.93;;;5.20;;
71490;SDS011;59307;50.060;9.150;2023-06-26T12:16:51;9.38;;;5.50;;
71490;SDS011;59307;50.060;9.150;2023-06-26T12:19:17;8.35;;;4.78;;
71490;SDS011;59307;50.060;9.150;2023-06-26T12:21:45;8.70;;;5.07;;
71490;SDS011;59307;50.060;9.150;2023-06-26T12:24:18;11.18;;;5.18;;
71490;SDS011;59307;50.060;9.150;2023-06-26T12:26:44;8.83;;;4.77;;
71490;SDS011;59307;50.060;9.150;2023-06-26T12:29:10;11.93;;;5.10;;
71490;SDS011;59307;50.060;9.150;2023-06-26T12:31:39;7.97;;;5.10;;
71490;SDS011;59307;50.060;9.150;2023-06-26T12:34:08;12.25;;;5.30;;
71490;SDS011;59307;50.060;9.150;2023-06-26T12:36:39;8.60;;;4.95;;
71490;SDS011;59307;50.060;9.150;2023-06-26T12:39:04;7.87;;;4.63;;
71490;SDS011;59307;50.060;9.150;2023-06-26T12:41:29;9.50;;;5.30;;
71490;SDS011;59307;50.060;9.150;2023-06-26T12:43:57;7.93;;;4.93;;
71490;SDS011;59307;50.060;9.150;2023-06-26T12:46:35;7.97;;;5.13;;
71490;SDS011;59307;50.060;9.150;2023-06-26T12:49:00;9.00;;;4.57;;
71490;SDS011;59307;50.060;9.150;2023-06-26T12:51:25;8.27;;;4.80;;
71490;SDS011;59307;50.060;9.150;2023-06-26T12:53:52;8.18;;;5.28;;
71490;SDS011;59307;50.060;9.150;2023-06-26T12:56:17;8.43;;;5.20;;
71490;SDS011;59307;50.060;9.150;2023-06-26T12:58:43;7.23;;;4.93;;
71490;SDS011;59307;50.060;9.150;2023-06-26T13:01:08;8.33;;;5.00;;
71490;SDS011;59307;50.060;9.150;2023-06-26T13:03:39;7.78;;;5.10;;
71490;SDS011;59307;50.060;9.150;2023-06-26T13:06:05;11.73;;;5.63;;
71490;SDS011;59307;50.060;9.150;2023-06-26T13:08:30;11.57;;;5.27;;
71490;SDS011;59307;50.060;9.150;2023-06-26T13:10:55;9.90;;;5.20;;
71490;SDS011;59307;50.060;9.150;2023-06-26T13:13:20;15.57;;;4.50;;
71490;SDS011;59307;50.060;9.150;2023-06-26T13:15:45;8.57;;;4.50;;
71490;SDS011;59307;50.060;9.150;2023-06-26T13:18:11;8.27;;;4.57;;
71490;SDS011;59307;50.060;9.150;2023-06-26T13:20:36;9.57;;;4.57;;
71490;SDS011;59307;50.060;9.150;2023-06-26T13:23:01;8.30;;;4.38;;
71490;SDS011;59307;50.060;9.150;2023-06-26T13:25:27;10.60;;;4.20;;
71490;SDS011;59307;50.060;9.150;2023-06-26T13:27:52;10.00;;;4.57;;
71490;SDS011;59307;50.060;9.150;2023-06-26T13:30:17;8.87;;;4.60;;
71490;SDS011;59307;50.060;9.150;2023-06-26T13:32:42;12.17;;;4.73;;
71490;SDS011;59307;50.060;9.150;2023-06-26T13:35:08;11.20;;;4.60;;
71490;SDS011;59307;50.060;9.150;2023-06-26T13:37:35;10.77;;;4.70;;
71490;SDS011;59307;50.060;9.150;2023-06-26T13:40:01;11.73;;;4.97;;
71490;SDS011;59307;50.060;9.150;2023-06-26T13:42:27;11.07;;;4.80;;
71490;SDS011;59307;50.060;9.150;2023-06-26T13:44:53;7.30;;;4.60;;
71490;SDS011;59307;50.060;9.150;2023-06-26T13:47:18;11.30;;;5.20;;
71490;SDS011;59307;50.060;9.150;2023-06-26T13:49:43;7.73;;;4.67;;
71490;SDS011;59307;50.060;9.150;2023-06-26T13:52:08;9.97;;;4.67;;
71490;SDS011;59307;50.060;9.150;2023-06-26T13:54:37;9.87;;;5.27;;
71490;SDS011;59307;50.060;9.150;2023-06-26T13:57:04;7.97;;;5.00;;
71490;SDS011;59307;50.060;9.150;2023-06-26T13:59:30;10.38;;;4.72;;
71490;SDS011;59307;50.060;9.150;2023-06-26T14:01:55;7.73;;;4.47;;
71490;SDS011;59307;50.060;9.150;2023-06-26T14:04:20;7.70;;;4.43;;
71490;SDS011;59307;50.060;9.150;2023-06-26T14:06:46;8.43;;;4.80;;
71490;SDS011;59307;50.060;9.150;2023-06-26T14:09:11;10.43;;;5.47;;
71490;SDS011;59307;50.060;9.150;2023-06-26T14:11:38;9.87;;;4.90;;
71490;SDS011;59307;50.060;9.150;2023-06-26T14:14:03;11.38;;;4.90;;
71490;SDS011;59307;50.060;9.150;2023-06-26T14:16:28;10.90;;;4.47;;
71490;SDS011;59307;50.060;9.150;2023-06-26T14:18:54;9.82;;;4.10;;
71490;SDS011;59307;50.060;9.150;2023-06-26T14:21:20;9.27;;;4.80;;
71490;SDS011;59307;50.060;9.150;2023-06-26T14:23:45;10.33;;;5.10;;
71490;SDS011;59307;50.060;9.150;2023-06-26T14:26:10;8.50;;;4.30;;
71490;SDS011;59307;50.060;9.150;2023-06-26T14:28:36;7.35;;;4.40;;
71490;SDS011;59307;50.060;9.150;2023-06-26T14:31:01;8.80;;;4.40;;
71490;SDS011;59307;50.060;9.150;2023-06-26T14:33:26;11.30;;;4.70;;
71490;SDS011;59307;50.060;9.150;2023-06-26T14:35:51;14.13;;;4.40;;
71490;SDS011;59307;50.060;9.150;2023-06-26T14:38:16;10.45;;;4.00;;
71490;SDS011;59307;50.060;9.150;2023-06-26T14:40:41;8.60;;;4.37;;
71490;SDS011;59307;50.060;9.150;2023-06-26T14:43:07;7.87;;;4.30;;
71490;SDS011;59307;50.060;9.150;2023-06-26T14:45:32;7.03;;;4.23;;
71490;SDS011;59307;50.060;9.150;2023-06-26T14:47:57;6.85;;;3.50;;
71490;SDS011;59307;50.060;9.150;2023-06-26T14:50:22;8.50;;;4.00;;